Time;durP1;ratioP1;P1;durP2;ratioP2;P2;SDS_P1;SDS_P2;PMS_P1;PMS_P2;Temp;Humidity;BMP_temperature;BMP_pressure;BME280_temperature;BME280_humidity;BME280_pressure;Samples;Min_cycle;Max_cycle;Signal;HPM_P1;HPM_P2
2023/12/29 00:01:59;;;;;;;0.83;0.50;;;8.30;99.90;8.20;100159.00;;;;4906885;28;116625;-73
2023/12/29 00:04:28;;;;;;;1.03;0.60;;;8.30;99.90;8.20;100172.00;;;;4920444;28;87838;-71
2023/12/29 00:06:54;;;;;;;1.27;0.90;;;8.30;99.90;8.10;100165.00;;;;4909737;28;109301;-71
2023/12/29 00:09:20;;;;;;;0.63;0.50;;;8.20;99.90;8.00;100154.00;;;;4913327;28;88350;-72
2023/12/29 00:11:50;;;;;;;1.10;0.83;;;8.20;99.90;8.10;100148.00;;;;4909098;28;89030;-71
2023/12/29 00:14:16;;;;;;;1.03;0.87;;;8.20;99.90;8.00;100150.00;;;;4917494;28;87988;-72
2023/12/29 00:16:43;;;;;;;1.00;0.70;;;8.10;99.90;8.00;100158.00;;;;4913318;28;98107;-69
2023/12/29 00:19:10;;;;;;;1.33;0.60;;;8.10;99.90;7.90;100152.00;;;;4910667;28;90011;-70
2023/12/29 00:21:36;;;;;;;0.70;0.70;;;8.10;99.90;7.90;100134.00;;;;4917981;28;90459;-69
2023/12/29 00:24:02;;;;;;;0.90;0.63;;;8.10;99.90;7.90;100139.00;;;;4910836;28;110348;-72
2023/12/29 00:26:28;;;;;;;3.80;0.70;;;8.00;99.90;7.90;100138.00;;;;4911498;28;89373;-70
2023/12/29 00:28:54;;;;;;;0.77;0.70;;;8.00;99.90;7.90;100128.00;;;;4911133;28;117903;-70
2023/12/29 00:31:20;;;;;;;0.50;0.50;;;8.00;99.90;7.80;100140.00;;;;4908940;28;102877;-69
2023/12/29 00:33:46;;;;;;;1.70;0.97;;;8.00;99.90;7.80;100133.00;;;;4909272;28;110109;-69
2023/12/29 00:36:20;;;;;;;0.87;0.87;;;7.90;99.90;7.80;100133.00;;;;4911530;28;101611;-72
2023/12/29 00:38:45;;;;;;;1.00;0.83;;;7.90;99.90;7.70;100122.00;;;;4908383;28;89012;-70
2023/12/29 00:41:11;;;;;;;1.00;0.73;;;7.80;99.90;7.70;100120.00;;;;4921407;28;117817;-72
2023/12/29 00:43:37;;;;;;;1.10;1.00;;;7.90;99.90;7.70;100126.00;;;;4909579;28;102856;-71
2023/12/29 00:46:08;;;;;;;2.00;1.00;;;7.90;99.90;7.70;100115.00;;;;4910683;28;104673;-72
2023/12/29 00:48:34;;;;;;;0.60;0.60;;;7.80;99.90;7.70;100123.00;;;;4914322;28;87887;-71
2023/12/29 00:51:03;;;;;;;0.93;0.80;;;7.80;99.90;7.80;100112.00;;;;4897888;28;108325;-71
2023/12/29 00:53:31;;;;;;;2.70;0.70;;;7.90;99.90;7.80;100114.00;;;;4914632;28;87773;-70
2023/12/29 00:55:57;;;;;;;1.97;0.73;;;7.90;99.90;7.80;100120.00;;;;4912153;28;88966;-71
2023/12/29 00:58:23;;;;;;;0.70;0.50;;;7.90;99.90;7.90;100104.00;;;;4908859;28;111525;-69
2023/12/29 01:00:49;;;;;;;1.63;1.13;;;8.80;99.90;7.90;100103.00;;;;4922616;28;110889;-69
2023/12/29 01:03:14;;;;;;;6.33;1.03;;;7.90;99.90;7.90;100109.00;;;;4912984;28;110546;-70
2023/12/29 01:05:40;;;;;;;1.23;0.73;;;8.00;99.90;7.90;100108.00;;;;4912399;28;108633;-71
2023/12/29 01:08:06;;;;;;;0.90;0.90;;;8.00;99.90;7.90;100110.00;;;;4914291;28;119202;-70
2023/12/29 01:10:31;;;;;;;1.33;1.10;;;8.00;99.90;7.90;100117.00;;;;4915040;28;104799;-71
2023/12/29 01:12:57;;;;;;;1.40;1.03;;;8.00;99.90;7.90;100110.00;;;;4913865;28;88569;-70
2023/12/29 01:15:23;;;;;;;1.07;0.83;;;8.00;99.90;7.80;100099.00;;;;4922271;28;87838;-70
2023/12/29 01:17:48;;;;;;;0.87;0.53;;;8.00;99.90;7.80;100103.00;;;;4912770;28;117553;-71
2023/12/29 01:20:14;;;;;;;0.47;0.40;;;7.90;99.90;7.80;100117.00;;;;4917065;28;117174;-72
2023/12/29 01:22:40;;;;;;;1.00;0.73;;;8.50;99.90;7.80;100102.00;;;;4921490;28;109356;-71
2023/12/29 01:25:06;;;;;;;0.73;0.53;;;7.90;99.90;7.80;100111.00;;;;4918287;28;87376;-69
2023/12/29 01:27:31;;;;;;;1.47;0.73;;;7.90;99.90;7.80;100102.00;;;;4917921;28;109504;-70
2023/12/29 01:29:57;;;;;;;0.80;0.70;;;7.90;99.90;7.80;100094.00;;;;4912244;28;116484;-70
2023/12/29 01:32:23;;;;;;;1.40;0.60;;;7.90;99.90;7.80;100099.00;;;;4917349;28;90266;-70
2023/12/29 01:34:48;;;;;;;0.57;0.57;;;7.90;99.90;7.80;100107.00;;;;4910198;28;109831;-71
2023/12/29 01:37:14;;;;;;;1.43;0.97;;;8.00;99.90;7.80;100107.00;;;;4921843;28;116826;-73
2023/12/29 01:39:40;;;;;;;0.83;0.60;;;7.90;99.90;7.80;100111.00;;;;4913596;28;117502;-70
2023/12/29 01:42:06;;;;;;;1.97;0.77;;;7.90;99.90;7.80;100096.00;;;;4914305;28;88221;-70
2023/12/29 01:44:32;;;;;;;2.47;0.90;;;7.90;99.90;7.80;100097.00;;;;4917005;28;94820;-70
2023/12/29 01:47:00;;;;;;;1.30;1.03;;;7.90;99.90;7.80;100100.00;;;;4913763;28;89495;-71
2023/12/29 01:49:30;;;;;;;0.60;0.60;;;7.90;99.90;7.80;100104.00;;;;4910207;28;108494;-69
2023/12/29 01:51:58;;;;;;;1.53;0.67;;;7.90;99.90;7.80;100100.00;;;;4912863;28;109548;-69
2023/12/29 01:54:37;;;;;;;3.43;0.60;;;7.90;99.90;7.70;100089.00;;;;4911543;28;88129;-69
2023/12/29 01:57:04;;;;;;;1.90;0.40;;;7.70;99.90;7.70;100081.00;;;;4917331;28;89060;-70
2023/12/29 01:59:31;;;;;;;1.13;0.70;;;7.80;99.90;7.70;100085.00;;;;4914169;28;89902;-69
2023/12/29 02:01:57;;;;;;;1.10;1.00;;;7.80;99.90;7.70;100078.00;;;;4913023;28;87871;-68
2023/12/29 02:04:25;;;;;;;0.47;0.47;;;7.80;99.90;7.70;100074.00;;;;4912834;28;87745;-70
2023/12/29 02:06:51;;;;;;;1.43;0.60;;;7.80;99.90;7.70;100068.00;;;;4913970;28;88895;-71
2023/12/29 02:09:20;;;;;;;1.47;0.97;;;7.70;99.90;7.70;100058.00;;;;4912394;28;95143;-68
2023/12/29 02:11:47;;;;;;;0.83;0.80;;;7.80;99.90;7.60;100069.00;;;;4912106;28;87841;-72
2023/12/29 02:14:15;;;;;;;0.83;0.67;;;7.70;99.90;7.60;100062.00;;;;4915098;28;86971;-72
2023/12/29 02:17:27;;;;;;;0.70;0.70;;;7.80;99.90;7.50;100049.00;;;;4913868;28;108213;-72
2023/12/29 02:19:54;;;;;;;0.77;0.60;;;7.70;99.90;7.50;100046.00;;;;4915632;28;107727;-72
2023/12/29 02:22:19;;;;;;;0.90;0.83;;;7.70;99.90;7.50;100049.00;;;;4910660;28;89081;-71
2023/12/29 02:24:51;;;;;;;1.03;0.80;;;7.60;99.90;7.50;100045.00;;;;4913898;28;88122;-73
2023/12/29 02:27:48;;;;;;;1.63;0.90;;;7.70;99.90;7.50;100052.00;;;;4911623;28;116220;-70
2023/12/29 02:31:05;;;;;;;1.40;0.97;;;7.60;99.90;7.50;100041.00;;;;4899513;28;88099;-69
2023/12/29 02:33:37;;;;;;;0.67;0.57;;;7.60;99.90;7.50;100042.00;;;;4907921;28;88038;-70
2023/12/29 02:36:04;;;;;;;5.40;0.83;;;7.60;99.90;7.60;100046.00;;;;4925510;28;88804;-72
2023/12/29 02:38:30;;;;;;;1.50;0.80;;;7.60;99.90;7.60;100041.00;;;;4925404;28;113368;-71
2023/12/29 02:40:56;;;;;;;0.43;0.43;;;7.70;99.90;7.60;100036.00;;;;4915271;28;88657;-69
2023/12/29 02:43:22;;;;;;;2.37;0.70;;;7.70;99.90;7.60;100045.00;;;;4909407;28;111266;-69
2023/12/29 02:45:48;;;;;;;0.80;0.70;;;7.70;99.90;7.60;100043.00;;;;4909971;28;107981;-69
2023/12/29 02:48:13;;;;;;;2.63;0.70;;;7.70;99.90;7.60;100046.00;;;;4910175;28;119334;-69
2023/12/29 02:50:39;;;;;;;0.73;0.40;;;7.70;99.90;7.60;100059.00;;;;4908548;28;110738;-69
2023/12/29 02:53:05;;;;;;;1.13;0.60;;;7.70;99.90;7.60;100050.00;;;;4908421;28;110507;-69
2023/12/29 02:55:31;;;;;;;0.60;0.40;;;7.70;99.90;7.70;100040.00;;;;4916879;28;87890;-71
2023/12/29 02:57:56;;;;;;;0.50;0.50;;;7.70;99.90;7.60;100045.00;;;;4911724;28;117819;-70
2023/12/29 03:00:22;;;;;;;0.40;0.40;;;7.80;99.90;7.60;100036.00;;;;4910315;28;117848;-69
2023/12/29 03:02:48;;;;;;;1.40;0.73;;;7.70;99.90;7.60;100041.00;;;;4912208;28;87796;-70
2023/12/29 03:05:14;;;;;;;0.77;0.60;;;7.70;99.90;7.60;100010.00;;;;4909066;28;86978;-71
2023/12/29 03:07:40;;;;;;;0.70;0.67;;;7.80;99.90;7.60;100023.00;;;;4914752;28;88204;-71
2023/12/29 03:10:07;;;;;;;1.07;0.40;;;7.80;99.90;7.60;100024.00;;;;4910428;28;89516;-69
2023/12/29 03:12:33;;;;;;;1.90;0.60;;;7.70;99.90;7.60;100031.00;;;;4907543;28;91830;-71
2023/12/29 03:14:59;;;;;;;0.67;0.40;;;8.00;99.90;7.60;100019.00;;;;4930250;28;107959;-69
2023/12/29 03:17:25;;;;;;;0.30;0.30;;;7.70;99.90;7.60;100011.00;;;;4914296;28;88397;-71
2023/12/29 03:19:52;;;;;;;0.87;0.37;;;7.70;99.90;7.60;100009.00;;;;4908345;28;117351;-72
2023/12/29 03:22:17;;;;;;;1.17;0.47;;;7.70;99.90;7.60;99999.00;;;;4907434;28;88397;-69
2023/12/29 03:24:43;;;;;;;0.20;0.20;;;7.70;99.90;7.70;99993.00;;;;4910550;28;108932;-70
2023/12/29 03:27:09;;;;;;;0.50;0.40;;;7.80;99.90;7.70;99999.00;;;;4910909;28;116665;-71
2023/12/29 03:29:36;;;;;;;0.20;0.20;;;7.80;99.90;7.80;100006.00;;;;4915662;28;88221;-68
2023/12/29 03:32:02;;;;;;;0.20;0.20;;;7.80;99.90;7.80;100011.00;;;;4911141;28;99945;-72
2023/12/29 03:34:27;;;;;;;1.90;0.53;;;7.90;99.90;7.80;100011.00;;;;4911388;28;87856;-70
2023/12/29 03:36:53;;;;;;;0.87;0.20;;;8.00;99.90;7.90;100003.00;;;;4914429;28;90239;-70
2023/12/29 03:39:19;;;;;;;0.70;0.50;;;8.00;99.90;7.90;99995.00;;;;4913305;28;118121;-68
2023/12/29 03:41:44;;;;;;;0.10;0.10;;;7.90;99.90;7.90;99986.00;;;;4910771;28;110554;-69
2023/12/29 03:44:10;;;;;;;0.73;0.73;;;8.00;99.90;7.90;99983.00;;;;4912176;28;87843;-69
2023/12/29 03:46:36;;;;;;;0.20;0.20;;;8.00;99.90;7.90;99968.00;;;;4910720;28;90987;-71
2023/12/29 03:49:02;;;;;;;0.20;0.20;;;8.00;99.90;7.90;99968.00;;;;4910756;28;88077;-69
2023/12/29 03:51:28;;;;;;;0.70;0.60;;;8.00;99.90;8.00;99956.00;;;;4910340;28;88201;-71
2023/12/29 03:53:54;;;;;;;3.50;0.30;;;8.10;99.90;8.00;99941.00;;;;4909755;28;99140;-69
2023/12/29 03:56:20;;;;;;;0.20;0.20;;;8.10;99.90;8.00;99961.00;;;;4912378;28;117251;-69
2023/12/29 03:58:46;;;;;;;0.30;0.30;;;8.10;99.90;8.00;99948.00;;;;4912183;28;88171;-69
2023/12/29 04:01:14;;;;;;;0.60;0.40;;;8.10;99.90;8.10;99956.00;;;;4909635;28;89825;-69
2023/12/29 04:03:40;;;;;;;0.30;0.27;;;8.20;99.90;8.10;99945.00;;;;4907738;28;88587;-70
2023/12/29 04:06:06;;;;;;;1.27;0.37;;;8.20;99.90;8.20;99948.00;;;;4907649;28;108169;-71
2023/12/29 04:08:36;;;;;;;0.37;0.30;;;8.20;99.90;8.20;99933.00;;;;4913455;28;103438;-70
2023/12/29 04:11:03;;;;;;;0.30;0.20;;;8.30;99.90;8.30;99929.00;;;;4905750;28;89354;-69
2023/12/29 04:13:29;;;;;;;0.20;0.10;;;8.40;99.90;8.30;99932.00;;;;4911863;28;87804;-70
2023/12/29 04:15:55;;;;;;;0.87;0.30;;;8.40;99.90;8.40;99928.00;;;;4915249;28;90281;-71
2023/12/29 04:18:22;;;;;;;0.77;0.40;;;8.40;99.90;8.40;99926.00;;;;4910990;28;88434;-68
2023/12/29 04:20:48;;;;;;;0.23;0.20;;;8.50;99.90;8.50;99934.00;;;;4908960;28;88540;-69
2023/12/29 04:23:14;;;;;;;0.37;0.37;;;8.50;99.90;8.50;99939.00;;;;4910321;28;87702;-70
2023/12/29 04:25:40;;;;;;;0.20;0.20;;;8.50;99.90;8.50;99941.00;;;;4910334;28;105427;-71
2023/12/29 04:28:07;;;;;;;0.20;0.20;;;8.60;99.90;8.50;99931.00;;;;4912282;28;108589;-69
2023/12/29 04:30:33;;;;;;;0.43;0.40;;;8.60;99.90;8.50;99941.00;;;;4914708;28;87651;-72
2023/12/29 04:32:59;;;;;;;0.70;0.50;;;8.60;99.90;8.50;99941.00;;;;4915026;28;87902;-70
2023/12/29 04:35:25;;;;;;;0.30;0.30;;;8.60;99.90;8.50;99942.00;;;;4910646;28;88472;-71
2023/12/29 04:37:51;;;;;;;0.40;0.30;;;8.60;99.90;8.50;99930.00;;;;4909125;28;117782;-72
2023/12/29 04:40:17;;;;;;;0.30;0.30;;;8.60;99.90;8.50;99940.00;;;;4911719;28;89390;-70
2023/12/29 04:42:42;;;;;;;0.30;0.30;;;8.60;99.90;8.50;99938.00;;;;4913081;28;99768;-70
2023/12/29 04:45:10;;;;;;;0.53;0.40;;;8.60;99.90;8.60;99936.00;;;;4915747;28;117157;-72
2023/12/29 04:47:36;;;;;;;0.47;0.47;;;8.60;99.90;8.60;99927.00;;;;4919051;28;90445;-71
2023/12/29 04:50:02;;;;;;;0.10;0.10;;;8.70;99.90;8.60;99939.00;;;;4914897;28;95061;-71
2023/12/29 04:52:28;;;;;;;0.40;0.40;;;8.70;99.90;8.50;99932.00;;;;4911745;28;87929;-70
2023/12/29 04:54:53;;;;;;;0.30;0.30;;;8.70;99.90;8.60;99938.00;;;;4914921;28;116355;-71
2023/12/29 04:57:19;;;;;;;1.07;0.30;;;8.60;99.90;8.60;99931.00;;;;4909492;28;117973;-70
2023/12/29 04:59:45;;;;;;;0.23;0.20;;;8.60;99.90;8.60;99932.00;;;;4914254;28;88166;-71
2023/12/29 05:02:11;;;;;;;0.17;0.17;;;8.60;99.90;8.60;99924.00;;;;4913244;28;109460;-70
2023/12/29 05:04:37;;;;;;;0.37;0.37;;;8.70;99.90;8.60;99924.00;;;;4911689;28;88899;-70
2023/12/29 05:07:05;;;;;;;0.33;0.33;;;8.70;99.90;8.60;99925.00;;;;4914420;28;88904;-71
2023/12/29 05:09:31;;;;;;;0.30;0.30;;;8.70;99.90;8.60;99929.00;;;;4913871;28;87994;-70
2023/12/29 05:11:56;;;;;;;0.30;0.30;;;8.70;99.90;8.60;99928.00;;;;4918738;28;90652;-71
2023/12/29 05:14:22;;;;;;;0.40;0.37;;;8.70;99.90;8.70;99932.00;;;;4919510;28;118701;-70
2023/12/29 05:16:47;;;;;;;0.67;0.40;;;8.80;99.90;8.60;99932.00;;;;4918279;28;116868;-71
2023/12/29 05:19:13;;;;;;;0.20;0.20;;;8.70;99.90;8.60;99945.00;;;;4910373;28;110298;-70
2023/12/29 05:21:39;;;;;;;0.47;0.40;;;8.70;99.90;8.60;99928.00;;;;4922183;28;109243;-70
2023/12/29 05:24:05;;;;;;;0.30;0.30;;;8.70;99.90;8.60;99928.00;;;;4912506;28;93069;-69
2023/12/29 05:26:31;;;;;;;0.30;0.20;;;8.90;99.90;8.60;99935.00;;;;4929075;28;88468;-72
2023/12/29 05:28:57;;;;;;;0.93;0.50;;;8.70;99.90;8.60;99942.00;;;;4914739;28;96422;-70
2023/12/29 05:31:23;;;;;;;0.70;0.47;;;8.70;99.90;8.60;99935.00;;;;4909464;28;94104;-70
2023/12/29 05:33:48;;;;;;;0.40;0.40;;;8.70;99.90;8.60;99949.00;;;;4907980;28;117589;-71
2023/12/29 05:36:15;;;;;;;4.47;0.40;;;8.70;99.90;8.60;99947.00;;;;4914140;28;88055;-71
2023/12/29 05:38:45;;;;;;;1.10;0.70;;;8.60;99.90;8.60;99949.00;;;;4912114;28;111988;-70
2023/12/29 05:41:13;;;;;;;0.60;0.40;;;8.60;99.90;8.60;99944.00;;;;4912978;28;87838;-69
2023/12/29 05:43:39;;;;;;;0.40;0.40;;;9.30;99.90;8.60;99954.00;;;;4913051;28;109997;-71
2023/12/29 05:46:11;;;;;;;0.57;0.57;;;8.60;99.90;8.60;99952.00;;;;4912518;28;117631;-71
2023/12/29 05:48:37;;;;;;;0.40;0.40;;;8.70;99.90;8.60;99937.00;;;;4913207;28;87976;-70
2023/12/29 05:51:13;;;;;;;0.50;0.40;;;8.70;99.90;8.60;99928.00;;;;4909555;28;90451;-70
2023/12/29 05:53:40;;;;;;;3.33;0.40;;;8.70;99.90;8.60;99938.00;;;;4912980;28;87740;-70
2023/12/29 05:56:06;;;;;;;0.73;0.30;;;8.70;99.90;8.60;99936.00;;;;4908621;28;88207;-71
2023/12/29 05:58:32;;;;;;;0.40;0.40;;;8.70;99.90;8.60;99928.00;;;;4912998;28;88482;-69
2023/12/29 06:01:00;;;;;;;0.67;0.37;;;8.70;99.90;8.50;99938.00;;;;4912659;28;101413;-71
2023/12/29 06:03:26;;;;;;;0.57;0.57;;;8.70;99.90;8.50;99939.00;;;;4917130;28;91231;-69
2023/12/29 06:05:52;;;;;;;0.57;0.37;;;8.60;99.90;8.50;99934.00;;;;4909496;28;119382;-72
2023/12/29 06:08:17;;;;;;;0.67;0.40;;;8.60;99.90;8.50;99931.00;;;;4908446;28;87846;-71
2023/12/29 06:10:43;;;;;;;0.90;0.63;;;8.60;99.90;8.60;99928.00;;;;4910613;28;107979;-71
2023/12/29 06:13:09;;;;;;;0.40;0.40;;;8.70;99.90;8.70;99923.00;;;;4915314;28;89527;-70
2023/12/29 06:15:36;;;;;;;0.57;0.40;;;8.70;99.90;8.70;99928.00;;;;4910982;28;111407;-70
2023/12/29 06:18:02;;;;;;;0.97;0.50;;;8.80;99.90;8.70;99928.00;;;;4915878;28;87964;-70
2023/12/29 06:20:27;;;;;;;1.13;0.57;;;8.80;99.90;8.80;99915.00;;;;4914853;28;86997;-71
2023/12/29 06:22:53;;;;;;;0.67;0.60;;;8.80;99.90;8.80;99912.00;;;;4916395;28;116258;-70
2023/12/29 06:25:19;;;;;;;1.27;0.43;;;8.80;99.90;8.70;99911.00;;;;4908648;28;87919;-71
2023/12/29 06:27:44;;;;;;;0.93;0.80;;;8.80;99.90;8.70;99917.00;;;;4907670;28;109623;-71
2023/12/29 06:30:11;;;;;;;0.63;0.33;;;8.80;99.90;8.70;99922.00;;;;4911446;28;108497;-70
2023/12/29 06:32:36;;;;;;;0.40;0.40;;;8.80;99.90;8.70;99918.00;;;;4909950;28;89219;-70
2023/12/29 06:35:04;;;;;;;0.57;0.40;;;8.60;99.90;8.70;99913.00;;;;4908127;28;116605;-70
2023/12/29 06:37:30;;;;;;;1.03;0.43;;;8.80;99.90;8.70;99914.00;;;;4912532;28;98028;-69
2023/12/29 06:39:56;;;;;;;1.57;0.70;;;8.80;99.90;8.70;99916.00;;;;4904247;28;99245;-70
2023/12/29 06:42:22;;;;;;;0.83;0.50;;;8.80;99.90;8.70;99913.00;;;;4906243;28;117034;-69
2023/12/29 06:44:48;;;;;;;0.93;0.53;;;8.90;99.90;8.80;99918.00;;;;4907936;28;88859;-72
2023/12/29 06:47:14;;;;;;;0.53;0.53;;;8.80;99.90;8.80;99910.00;;;;4905063;28;88193;-69
2023/12/29 06:49:40;;;;;;;0.93;0.77;;;8.90;99.90;8.80;99926.00;;;;4903698;28;109015;-71
2023/12/29 06:52:06;;;;;;;1.17;0.60;;;8.90;99.90;8.80;99919.00;;;;4909992;28;89398;-68
2023/12/29 06:54:33;;;;;;;0.60;0.50;;;8.90;99.90;8.80;99921.00;;;;4912474;28;118789;-69
2023/12/29 06:56:59;;;;;;;0.70;0.40;;;8.80;99.90;8.70;99911.00;;;;4903805;28;100940;-71
2023/12/29 06:59:24;;;;;;;2.63;0.33;;;8.80;99.90;8.70;99917.00;;;;4908922;28;108841;-71
2023/12/29 07:01:51;;;;;;;1.60;0.83;;;8.80;99.90;8.70;99914.00;;;;4909631;28;89105;-71
2023/12/29 07:04:16;;;;;;;1.17;0.73;;;8.80;99.90;8.60;99922.00;;;;4912085;28;88014;-69
2023/12/29 07:06:42;;;;;;;0.63;0.53;;;8.70;99.90;8.60;99925.00;;;;4909614;28;88131;-69
2023/12/29 07:09:09;;;;;;;0.40;0.40;;;8.70;99.90;8.70;99922.00;;;;4905881;28;100150;-69
2023/12/29 07:11:36;;;;;;;0.50;0.50;;;8.70;99.90;8.70;99936.00;;;;4909104;28;87900;-68
2023/12/29 07:14:02;;;;;;;1.37;0.53;;;8.80;99.90;8.80;99922.00;;;;4913478;28;104524;-70
2023/12/29 07:16:28;;;;;;;0.57;0.57;;;8.80;99.90;8.80;99928.00;;;;4911202;28;88906;-70
2023/12/29 07:18:54;;;;;;;0.87;0.50;;;8.90;99.90;8.90;99923.00;;;;4912925;28;87766;-70
2023/12/29 07:21:19;;;;;;;0.50;0.50;;;8.90;99.90;9.00;99925.00;;;;4902157;28;116655;-69
2023/12/29 07:23:45;;;;;;;0.73;0.37;;;9.00;99.90;9.00;99914.00;;;;4904074;28;118256;-69
2023/12/29 07:26:11;;;;;;;0.80;0.57;;;9.00;99.90;9.10;99928.00;;;;4910715;28;109263;-70
2023/12/29 07:28:37;;;;;;;1.57;0.80;;;9.10;99.90;9.10;99928.00;;;;4895735;28;87950;-70
2023/12/29 07:31:02;;;;;;;0.57;0.57;;;9.20;99.90;9.10;99926.00;;;;4907086;28;116844;-71
2023/12/29 07:33:28;;;;;;;0.30;0.30;;;9.20;99.90;9.10;99933.00;;;;4926441;28;90384;-69
2023/12/29 07:35:54;;;;;;;1.00;0.50;;;9.20;99.90;9.10;99932.00;;;;4906289;28;88821;-69
2023/12/29 07:38:20;;;;;;;0.67;0.67;;;9.20;99.90;9.00;99936.00;;;;4909183;28;108905;-71
2023/12/29 07:40:47;;;;;;;0.30;0.30;;;9.10;99.90;9.00;99935.00;;;;4904496;28;120073;-69
2023/12/29 07:43:13;;;;;;;0.77;0.63;;;9.10;99.90;9.00;99943.00;;;;4905183;28;88570;-69
2023/12/29 07:45:39;;;;;;;0.50;0.50;;;9.10;99.90;9.00;99943.00;;;;4907415;28;88082;-70
2023/12/29 07:48:05;;;;;;;0.60;0.60;;;9.10;99.90;9.00;99943.00;;;;4904259;28;108403;-71
2023/12/29 07:50:31;;;;;;;0.60;0.47;;;9.10;99.90;9.10;99953.00;;;;4907214;28;106951;-69
2023/12/29 07:52:57;;;;;;;0.70;0.70;;;9.10;99.90;9.20;99944.00;;;;4908416;28;88277;-69
2023/12/29 07:55:22;;;;;;;0.57;0.53;;;9.20;99.90;9.20;99952.00;;;;4906497;28;87974;-71
2023/12/29 07:57:48;;;;;;;1.13;0.70;;;9.30;99.90;9.20;99952.00;;;;4909119;28;100638;-71
2023/12/29 08:00:17;;;;;;;0.97;0.50;;;9.30;99.90;9.30;99939.00;;;;4905910;28;88829;-71
2023/12/29 08:02:43;;;;;;;0.63;0.63;;;9.40;99.90;9.30;99950.00;;;;4909071;28;87997;-69
2023/12/29 08:05:09;;;;;;;1.27;1.03;;;9.40;99.90;9.40;99953.00;;;;4909476;28;109650;-71
2023/12/29 08:07:37;;;;;;;0.80;0.77;;;9.40;99.90;9.40;99960.00;;;;4913622;28;88233;-70
2023/12/29 08:10:05;;;;;;;0.93;0.80;;;9.40;99.90;9.40;99942.00;;;;4907657;28;88580;-69
2023/12/29 08:12:33;;;;;;;0.50;0.50;;;9.50;99.90;9.40;99936.00;;;;4910076;28;87945;-69
2023/12/29 08:14:59;;;;;;;1.40;0.83;;;9.50;99.90;9.50;99956.00;;;;4908969;28;88135;-71
2023/12/29 08:17:24;;;;;;;0.50;0.47;;;9.60;99.90;9.50;99958.00;;;;4908759;28;97875;-70
2023/12/29 08:19:50;;;;;;;1.40;0.50;;;9.60;99.90;9.60;99961.00;;;;4910236;28;88103;-69
2023/12/29 08:22:15;;;;;;;2.53;0.90;;;9.60;99.90;9.60;99954.00;;;;4903058;28;116885;-69
2023/12/29 08:24:44;;;;;;;2.73;0.70;;;9.60;99.90;9.60;99958.00;;;;4903022;28;109823;-70
2023/12/29 08:27:11;;;;;;;0.73;0.60;;;9.70;99.90;9.60;99954.00;;;;4924141;28;87833;-70
2023/12/29 08:29:37;;;;;;;0.43;0.43;;;9.70;99.90;9.70;99954.00;;;;4911114;28;101958;-69
2023/12/29 08:32:03;;;;;;;1.20;0.70;;;9.80;99.90;9.70;99969.00;;;;4908942;28;118362;-71
2023/12/29 08:34:28;;;;;;;0.63;0.63;;;9.70;99.90;9.80;99959.00;;;;4902761;28;100751;-69
2023/12/29 08:36:54;;;;;;;1.73;0.77;;;9.80;99.90;9.80;99952.00;;;;4900829;28;108378;-71
2023/12/29 08:39:20;;;;;;;0.53;0.47;;;9.80;99.90;9.80;99946.00;;;;4904623;28;118981;-71
2023/12/29 08:41:49;;;;;;;1.03;0.63;;;9.90;99.90;9.80;99928.00;;;;4904327;28;117650;-70
2023/12/29 08:44:15;;;;;;;1.20;0.60;;;9.90;99.90;9.80;99934.00;;;;4905952;28;88090;-69
2023/12/29 08:46:41;;;;;;;1.23;0.70;;;9.90;99.90;9.90;99919.00;;;;4905575;28;100530;-71
2023/12/29 08:49:07;;;;;;;0.40;0.40;;;9.90;99.90;9.90;99917.00;;;;4904351;28;116387;-70
2023/12/29 08:51:33;;;;;;;0.57;0.57;;;10.00;99.90;10.00;99934.00;;;;4906763;28;88457;-69
2023/12/29 08:53:58;;;;;;;0.93;0.83;;;10.00;99.90;10.00;99927.00;;;;4903817;28;88775;-71
2023/12/29 08:56:24;;;;;;;1.20;0.80;;;10.00;99.90;10.00;99924.00;;;;4902123;28;107735;-69
2023/12/29 08:58:50;;;;;;;0.47;0.43;;;10.10;99.90;10.20;99937.00;;;;4906398;28;87952;-69
2023/12/29 09:01:15;;;;;;;0.60;0.60;;;10.20;99.90;10.30;99945.00;;;;4903319;28;117621;-70
2023/12/29 09:03:42;;;;;;;1.33;0.67;;;10.30;99.90;10.40;99952.00;;;;4906482;28;93554;-70
2023/12/29 09:06:08;;;;;;;0.50;0.50;;;10.40;99.90;10.40;99947.00;;;;4903886;28;88688;-72
2023/12/29 09:08:35;;;;;;;0.53;0.50;;;10.50;99.90;10.50;99960.00;;;;4902769;28;88669;-70
2023/12/29 09:11:01;;;;;;;0.57;0.57;;;10.50;99.90;10.60;99949.00;;;;4908812;28;88735;-68
2023/12/29 09:13:27;;;;;;;0.47;0.43;;;10.60;99.90;10.80;99954.00;;;;4911688;28;88244;-70
2023/12/29 09:15:54;;;;;;;0.50;0.50;;;10.80;99.90;10.80;99955.00;;;;4909689;28;87803;-69
2023/12/29 09:18:20;;;;;;;0.87;0.73;;;10.50;99.90;10.90;99963.00;;;;4910683;28;89911;-68
2023/12/29 09:20:45;;;;;;;0.83;0.73;;;10.90;99.90;10.90;99955.00;;;;4906413;28;116155;-70
2023/12/29 09:23:20;;;;;;;0.60;0.60;;;10.90;99.90;10.90;99971.00;;;;4910995;28;110801;-71
2023/12/29 09:25:45;;;;;;;1.00;0.90;;;10.90;99.90;11.00;99974.00;;;;4905672;28;87914;-68
2023/12/29 09:28:12;;;;;;;1.20;0.57;;;11.00;99.90;11.20;99973.00;;;;4909395;28;88384;-68
2023/12/29 09:30:37;;;;;;;0.97;0.70;;;11.10;99.90;11.40;99982.00;;;;4909107;28;88978;-68
2023/12/29 09:33:03;;;;;;;0.90;0.40;;;11.30;99.90;11.50;99975.00;;;;4906429;28;108904;-70
2023/12/29 09:35:29;;;;;;;0.90;0.67;;;11.50;99.90;11.40;99973.00;;;;4906060;28;87284;-69
2023/12/29 09:37:54;;;;;;;1.53;0.57;;;11.50;99.90;11.40;99976.00;;;;4908397;28;88674;-69
2023/12/29 09:40:20;;;;;;;0.70;0.70;;;11.50;99.90;11.40;99979.00;;;;4909661;28;116385;-69
2023/12/29 09:42:47;;;;;;;0.83;0.57;;;11.40;99.90;11.30;99972.00;;;;4905724;28;88918;-69
2023/12/29 09:45:13;;;;;;;0.60;0.60;;;11.40;99.90;11.30;99989.00;;;;4911017;28;109144;-71
2023/12/29 09:47:43;;;;;;;0.97;0.80;;;11.30;99.90;11.20;99990.00;;;;4909659;28;88373;-69
2023/12/29 09:50:12;;;;;;;2.00;0.70;;;11.30;99.90;11.20;99988.00;;;;4907135;28;118955;-69
2023/12/29 09:52:41;;;;;;;1.90;0.70;;;11.30;99.90;11.10;99992.00;;;;4915640;28;87733;-70
2023/12/29 09:55:11;;;;;;;1.13;0.77;;;11.20;99.90;11.10;99963.00;;;;4905701;28;97519;-69
2023/12/29 09:57:40;;;;;;;0.53;0.47;;;11.20;99.90;11.00;99976.00;;;;4921222;28;88698;-67
2023/12/29 10:00:11;;;;;;;0.80;0.67;;;11.10;99.90;11.00;99966.00;;;;4909159;28;87386;-69
2023/12/29 10:02:38;;;;;;;1.00;0.90;;;11.10;99.90;11.00;99965.00;;;;4911974;28;88076;-69
2023/12/29 10:05:09;;;;;;;1.03;0.83;;;11.10;99.90;11.00;99958.00;;;;4906693;28;88190;-70
2023/12/29 10:07:39;;;;;;;0.57;0.57;;;11.10;99.90;11.10;99967.00;;;;4905653;28;91077;-68
2023/12/29 10:10:06;;;;;;;1.13;0.70;;;11.10;99.90;11.10;99972.00;;;;4907412;28;89529;-69
2023/12/29 10:12:34;;;;;;;2.00;0.57;;;11.10;99.90;11.10;99985.00;;;;4908915;28;88764;-69
2023/12/29 10:15:20;;;;;;;1.53;0.90;;;11.10;99.90;11.10;99972.00;;;;4909377;28;95598;-70
2023/12/29 10:18:09;;;;;;;2.43;0.77;;;11.10;99.90;11.00;99965.00;;;;4914099;28;88145;-68
2023/12/29 10:20:50;;;;;;;2.20;0.70;;;11.60;99.90;11.00;99972.00;;;;4920261;28;108218;-68
2023/12/29 10:23:25;;;;;;;0.40;0.40;;;11.10;99.90;11.10;99979.00;;;;4906646;28;88858;-70
2023/12/29 10:25:51;;;;;;;0.30;0.30;;;11.10;99.90;11.10;99979.00;;;;4909206;28;89203;-68
2023/12/29 10:28:18;;;;;;;0.63;0.63;;;11.10;99.90;11.10;99975.00;;;;4910186;28;88028;-69
2023/12/29 10:30:44;;;;;;;0.90;0.80;;;11.20;99.90;11.10;99974.00;;;;4927936;28;88660;-68
2023/12/29 10:33:09;;;;;;;4.30;1.00;;;11.10;99.90;11.10;99969.00;;;;4906365;28;103372;-68
2023/12/29 10:35:38;;;;;;;0.50;0.50;;;11.10;99.90;11.10;99979.00;;;;4910219;28;87894;-71
2023/12/29 10:38:12;;;;;;;1.80;1.27;;;11.20;99.90;11.10;99973.00;;;;4922227;28;87566;-68
2023/12/29 10:40:37;;;;;;;1.37;0.63;;;11.20;99.90;11.10;99981.00;;;;4905297;28;88283;-70
2023/12/29 10:43:08;;;;;;;2.10;0.97;;;11.20;99.90;11.20;99991.00;;;;4909385;28;96438;-69
2023/12/29 10:45:34;;;;;;;0.70;0.50;;;11.20;99.90;11.20;99972.00;;;;4907099;28;88044;-70
2023/12/29 10:48:00;;;;;;;0.60;0.60;;;11.20;99.90;11.20;99986.00;;;;4907782;28;88087;-69
2023/12/29 10:50:27;;;;;;;1.40;0.90;;;11.20;99.90;11.20;99962.00;;;;4904412;28;88974;-70
2023/12/29 10:53:21;;;;;;;0.93;0.63;;;11.20;99.90;11.20;99969.00;;;;4910942;28;87643;-68
2023/12/29 10:55:47;;;;;;;0.40;0.40;;;11.30;99.90;11.20;99958.00;;;;4906673;28;107947;-69
2023/12/29 10:58:17;;;;;;;0.60;0.60;;;11.30;99.90;11.30;99964.00;;;;4906722;28;89485;-68
2023/12/29 11:00:42;;;;;;;0.70;0.70;;;11.30;99.90;11.30;99960.00;;;;4905308;28;89826;-68